Siloam Springs, Arkansas
Current Conditions -  °F | °C
As of 3:15 PM on Thursday 20 Nov 2014 (Local Time) from KSLG Reporting Station
Clear Clear  
Wind Chill: 61°   Ceiling: Unl
Heat Index: 61°   Visibility: 10mi
Dew Point: 36°   Wind: 7mph
Humidity: 39%   Direction: 170°S
Pressure: 30.08"   Gusts: NA
Location:  36.19°N, 94.54°W
Report Text: KSLG 202115Z AUTO 17006KT 10SM CLR 16/02 A3008 RMK AO1
Loading
Personal Weather Stations






























Interactive Weather Map New forecast layout! Learn more

10-Day Weather Forecast

Advertisements
Track Severe Weather on mobile